Time;durP1;ratioP1;P1;durP2;ratioP2;P2;SDS_P1;SDS_P2;PMS_P1;PMS_P2;Temp;Humidity;BMP_temperature;BMP_pressure;BME280_temperature;BME280_humidity;BME280_pressure;Samples;Min_cycle;Max_cycle;Signal;HPM_P1;HPM_P2
2022/08/23 00:01:56;;;;;;;7.15;4.72;;;18.20;99.90;;;;;;4986922;28;20057;-77
2022/08/23 00:04:25;;;;;;;7.40;4.38;;;18.10;99.90;;;;;;5004386;28;20137;-77
2022/08/23 00:06:52;;;;;;;6.22;4.28;;;18.10;99.90;;;;;;5006327;28;20045;-77
2022/08/23 00:09:21;;;;;;;7.82;4.72;;;18.10;99.90;;;;;;4988008;28;20089;-76
2022/08/23 00:12:28;;;;;;;8.77;4.38;;;18.10;99.90;;;;;;4987220;28;20054;-77
2022/08/23 00:14:54;;;;;;;6.75;4.53;;;18.10;99.90;;;;;;4946626;28;20185;-77
2022/08/23 00:17:20;;;;;;;7.05;4.20;;;18.00;99.90;;;;;;4971628;28;20064;-77
2022/08/23 00:19:46;;;;;;;6.72;4.00;;;18.00;99.90;;;;;;5002924;28;20038;-77
2022/08/23 00:22:14;;;;;;;5.63;4.25;;;18.00;99.90;;;;;;4984357;28;20108;-77
2022/08/23 00:24:40;;;;;;;6.35;4.35;;;18.00;99.90;;;;;;5002139;28;20049;-77
2022/08/23 00:27:11;;;;;;;7.95;4.25;;;18.00;99.90;;;;;;5005209;28;20045;-77
2022/08/23 00:29:48;;;;;;;6.78;4.50;;;17.90;99.90;;;;;;4982606;28;20057;-77
2022/08/23 00:32:21;;;;;;;8.73;5.03;;;17.90;99.90;;;;;;5002498;28;20076;-77
2022/08/23 00:34:48;;;;;;;9.20;5.28;;;17.80;99.90;;;;;;5002653;28;20089;-76
2022/08/23 00:37:14;;;;;;;8.27;4.40;;;17.80;99.90;;;;;;5002816;28;20081;-77
2022/08/23 00:39:41;;;;;;;5.93;4.70;;;17.80;99.90;;;;;;5003455;28;20126;-77
2022/08/23 00:47:44;;;;;;;7.28;4.95;;;17.70;99.90;;;;;;5003412;28;20054;-76
2022/08/23 00:50:38;;;;;;;7.50;4.28;;;17.70;99.90;;;;;;5004559;28;20038;-77
2022/08/23 00:53:15;;;;;;;7.65;5.30;;;17.70;99.90;;;;;;4984632;28;20123;-76
2022/08/23 00:55:46;;;;;;;8.07;4.80;;;17.70;99.90;;;;;;5003760;28;20482;-76
2022/08/23 00:58:18;;;;;;;7.53;4.65;;;17.70;99.90;;;;;;5021758;28;20129;-77
2022/08/23 01:00:45;;;;;;;10.15;5.32;;;17.70;99.90;;;;;;4987150;28;21331;-77
2022/08/23 01:03:12;;;;;;;8.93;4.90;;;17.60;99.90;;;;;;5008519;28;20038;-76
2022/08/23 01:05:53;;;;;;;7.85;4.57;;;17.70;99.90;;;;;;5005997;28;20057;-78
2022/08/23 01:08:22;;;;;;;8.05;4.78;;;17.70;99.90;;;;;;4990244;28;20180;-78
2022/08/23 01:10:56;;;;;;;6.32;4.28;;;17.70;99.90;;;;;;5005210;28;20064;-77
2022/08/23 01:13:35;;;;;;;9.30;5.60;;;17.60;99.90;;;;;;5008401;28;20041;-77
2022/08/23 01:16:09;;;;;;;7.53;4.40;;;17.60;99.90;;;;;;5006550;28;20056;-77
2022/08/23 01:18:35;;;;;;;10.38;5.03;;;17.60;99.90;;;;;;5012558;28;20125;-77
2022/08/23 01:21:14;;;;;;;8.18;4.32;;;17.60;99.90;;;;;;4995920;28;20483;-78
2022/08/23 01:23:40;;;;;;;6.70;4.30;;;17.60;99.90;;;;;;5034315;28;20614;-79
2022/08/23 01:26:06;;;;;;;8.02;4.85;;;17.50;99.90;;;;;;5029398;28;20037;-77
2022/08/23 01:28:33;;;;;;;8.27;4.90;;;17.50;99.90;;;;;;5011342;28;20379;-77
2022/08/23 01:30:59;;;;;;;8.55;4.10;;;17.50;99.90;;;;;;5006768;28;20061;-77
2022/08/23 01:33:24;;;;;;;7.32;4.35;;;17.50;99.90;;;;;;4996508;28;20068;-77
2022/08/23 01:35:53;;;;;;;8.55;5.07;;;17.50;99.90;;;;;;4999155;28;20037;-77
2022/08/23 01:38:19;;;;;;;6.28;4.10;;;17.50;99.90;;;;;;5037295;28;20052;-77
2022/08/23 01:40:46;;;;;;;8.60;4.80;;;17.50;99.90;;;;;;5005537;28;20494;-76
2022/08/23 01:43:12;;;;;;;7.07;4.75;;;17.40;99.90;;;;;;5005045;28;20048;-76
2022/08/23 01:45:38;;;;;;;7.97;5.22;;;17.40;99.90;;;;;;5005909;28;20099;-75
2022/08/23 01:48:04;;;;;;;7.70;4.50;;;17.40;99.90;;;;;;4990805;28;20135;-76
2022/08/23 01:50:30;;;;;;;7.65;4.90;;;17.30;99.90;;;;;;4974457;28;20438;-76
2022/08/23 01:52:58;;;;;;;6.55;4.63;;;17.30;99.90;;;;;;5005905;28;20053;-76
2022/08/23 01:55:25;;;;;;;7.28;5.30;;;17.30;99.90;;;;;;5003833;28;20110;-76
2022/08/23 01:57:54;;;;;;;9.48;5.22;;;17.20;99.90;;;;;;5005740;28;20483;-76
2022/08/23 02:00:24;;;;;;;7.70;5.28;;;17.20;99.90;;;;;;5006541;28;20060;-77
2022/08/23 02:02:50;;;;;;;5.68;4.60;;;17.10;99.90;;;;;;5005399;28;20156;-76
2022/08/23 02:05:16;;;;;;;8.90;5.07;;;17.20;99.90;;;;;;5004652;28;20068;-78
2022/08/23 02:07:42;;;;;;;9.75;5.28;;;17.10;99.90;;;;;;5004858;28;20147;-75
2022/08/23 02:10:14;;;;;;;8.48;5.18;;;17.10;99.90;;;;;;4987720;28;20091;-77
2022/08/23 02:12:40;;;;;;;5.72;4.78;;;17.10;99.90;;;;;;5019479;28;20057;-76
2022/08/23 02:15:06;;;;;;;8.73;5.70;;;17.10;99.90;;;;;;5004100;28;20096;-77
2022/08/23 02:17:33;;;;;;;7.97;4.88;;;17.00;99.90;;;;;;5008929;28;20049;-77
2022/08/23 02:20:00;;;;;;;8.30;6.35;;;17.00;99.90;;;;;;4973689;28;20059;-76
2022/08/23 02:22:26;;;;;;;10.98;5.60;;;17.00;99.90;;;;;;5022317;28;20052;-76
2022/08/23 02:24:52;;;;;;;6.63;5.00;;;17.00;99.90;;;;;;5002726;28;20053;-76
2022/08/23 02:27:18;;;;;;;9.10;5.20;;;17.00;99.90;;;;;;5006269;28;20049;-77
2022/08/23 02:29:45;;;;;;;7.03;5.32;;;16.90;99.90;;;;;;5005902;28;20042;-76
2022/08/23 02:32:13;;;;;;;8.13;5.90;;;16.90;99.90;;;;;;5005236;28;20071;-76
2022/08/23 02:34:40;;;;;;;6.93;6.20;;;16.90;99.90;;;;;;4987296;28;20052;-75
2022/08/23 02:37:08;;;;;;;8.07;5.35;;;16.90;99.90;;;;;;4989442;28;20056;-76
2022/08/23 02:39:34;;;;;;;9.68;5.53;;;16.90;99.90;;;;;;5004011;28;20148;-77
2022/08/23 02:42:00;;;;;;;9.57;5.55;;;16.90;99.90;;;;;;5021415;28;20122;-77
2022/08/23 02:44:26;;;;;;;9.40;6.28;;;16.90;99.90;;;;;;5012019;28;20045;-77
2022/08/23 02:46:51;;;;;;;8.85;5.68;;;16.80;99.90;;;;;;4988124;28;20048;-77
2022/08/23 02:49:18;;;;;;;7.78;5.38;;;16.90;99.90;;;;;;4972526;28;20092;-76
2022/08/23 02:51:44;;;;;;;8.15;5.53;;;16.80;99.90;;;;;;5002850;28;20093;-76
2022/08/23 02:54:10;;;;;;;9.70;6.22;;;16.80;99.90;;;;;;5002671;28;20595;-76
2022/08/23 02:56:36;;;;;;;8.27;6.05;;;16.90;99.90;;;;;;5003693;28;20144;-76
2022/08/23 02:59:03;;;;;;;10.55;7.10;;;16.80;99.90;;;;;;5005454;28;20053;-76
2022/08/23 03:01:32;;;;;;;9.60;6.10;;;16.80;99.90;;;;;;5004733;28;20088;-76
2022/08/23 03:03:59;;;;;;;7.50;5.45;;;16.80;99.90;;;;;;5003509;28;20667;-76
2022/08/23 03:06:26;;;;;;;8.40;6.72;;;16.80;99.90;;;;;;5006055;28;20045;-76
2022/08/23 03:08:53;;;;;;;8.15;5.85;;;16.80;99.90;;;;;;4986041;28;20525;-77
2022/08/23 03:11:20;;;;;;;10.18;5.82;;;16.80;99.90;;;;;;5003274;28;20049;-76
2022/08/23 03:13:47;;;;;;;9.63;6.05;;;16.80;99.90;;;;;;5004181;28;20049;-76
2022/08/23 03:16:14;;;;;;;8.77;6.13;;;16.80;99.90;;;;;;4986906;28;20171;-76
2022/08/23 03:18:40;;;;;;;8.48;6.78;;;16.70;99.90;;;;;;5004673;28;20049;-76
2022/08/23 03:21:08;;;;;;;11.38;7.15;;;16.80;99.90;;;;;;4967562;28;20143;-76
2022/08/23 03:23:34;;;;;;;8.77;6.75;;;16.70;99.90;;;;;;4971579;28;20048;-76
2022/08/23 03:26:02;;;;;;;9.93;6.60;;;16.70;99.90;;;;;;4986117;28;20038;-76
2022/08/23 03:28:29;;;;;;;8.52;7.53;;;16.70;99.90;;;;;;5004434;28;20446;-77
2022/08/23 03:30:55;;;;;;;10.20;7.13;;;16.70;99.90;;;;;;5004067;28;20044;-77
2022/08/23 03:33:22;;;;;;;8.98;7.43;;;16.70;99.90;;;;;;5010196;28;20487;-77
2022/08/23 03:35:49;;;;;;;11.07;6.70;;;16.70;99.90;;;;;;5018006;28;20052;-77
2022/08/23 03:38:16;;;;;;;8.73;7.05;;;16.60;99.90;;;;;;4988689;28;20045;-77
2022/08/23 03:40:42;;;;;;;7.15;6.45;;;16.60;99.90;;;;;;4971182;28;20204;-75
2022/08/23 03:43:08;;;;;;;9.43;6.22;;;16.60;99.90;;;;;;5004343;28;20052;-76
2022/08/23 03:45:34;;;;;;;9.65;6.97;;;16.60;99.90;;;;;;4985992;28;20041;-76
2022/08/23 03:48:00;;;;;;;9.52;6.53;;;16.60;99.90;;;;;;4987074;28;20041;-76
2022/08/23 03:50:26;;;;;;;10.10;6.75;;;16.60;99.90;;;;;;5005161;28;20136;-77
2022/08/23 03:52:52;;;;;;;9.45;7.20;;;16.60;99.90;;;;;;4987168;28;20053;-77
2022/08/23 03:55:18;;;;;;;9.00;6.38;;;16.60;99.90;;;;;;5004824;28;20042;-75
2022/08/23 03:57:44;;;;;;;9.57;7.10;;;16.60;99.90;;;;;;4988039;28;20073;-76
2022/08/23 04:00:13;;;;;;;9.00;7.55;;;16.60;99.90;;;;;;4990508;28;20049;-76
2022/08/23 04:02:38;;;;;;;7.95;6.80;;;16.60;99.90;;;;;;5006104;28;20077;-76
2022/08/23 04:05:07;;;;;;;11.15;6.85;;;16.60;99.90;;;;;;4989048;28;20099;-76
2022/08/23 04:07:34;;;;;;;7.80;6.00;;;16.60;99.90;;;;;;5005594;28;20055;-77
2022/08/23 04:10:00;;;;;;;10.98;7.30;;;16.60;99.90;;;;;;5006041;28;20052;-76
2022/08/23 04:12:26;;;;;;;10.00;6.60;;;16.60;99.90;;;;;;4993034;28;20057;-78
2022/08/23 04:14:52;;;;;;;8.98;6.82;;;16.50;99.90;;;;;;5003465;28;20042;-77
2022/08/23 04:17:19;;;;;;;8.50;6.63;;;16.50;99.90;;;;;;4987282;28;20060;-78
2022/08/23 04:19:46;;;;;;;9.25;6.88;;;16.50;99.90;;;;;;5012603;28;20110;-77
2022/08/23 04:22:14;;;;;;;8.32;7.38;;;16.40;99.90;;;;;;5012501;28;20041;-77
2022/08/23 04:24:41;;;;;;;8.90;7.00;;;16.40;99.90;;;;;;5004297;28;21148;-76
2022/08/23 04:27:07;;;;;;;9.57;7.43;;;16.40;99.90;;;;;;5014624;28;20055;-76
2022/08/23 04:29:33;;;;;;;10.73;7.60;;;16.40;99.90;;;;;;5005138;28;20053;-77
2022/08/23 04:31:59;;;;;;;8.82;7.00;;;16.40;99.90;;;;;;4999468;28;20056;-76
2022/08/23 04:34:26;;;;;;;9.57;7.22;;;16.30;99.90;;;;;;4988330;28;20517;-76
2022/08/23 04:36:52;;;;;;;8.60;7.50;;;16.30;99.90;;;;;;5005523;28;20077;-77
2022/08/23 04:39:18;;;;;;;11.35;8.13;;;16.30;99.90;;;;;;4954810;28;20139;-77
2022/08/23 04:44:28;;;;;;;9.50;7.95;;;16.30;99.90;;;;;;5002490;28;20095;-77
2022/08/23 04:46:53;;;;;;;9.57;8.00;;;16.30;99.90;;;;;;5004635;28;20065;-77
2022/08/23 04:49:21;;;;;;;12.13;8.50;;;16.30;99.90;;;;;;4987573;28;20049;-77
2022/08/23 04:51:48;;;;;;;10.25;6.50;;;16.30;99.90;;;;;;5007662;28;20125;-77
2022/08/23 04:54:14;;;;;;;9.30;7.65;;;16.30;99.90;;;;;;5007793;28;20095;-75
2022/08/23 04:56:40;;;;;;;8.60;7.70;;;16.40;99.90;;;;;;5025005;28;20049;-77
2022/08/23 04:59:06;;;;;;;9.38;7.88;;;16.30;99.90;;;;;;5007282;28;20049;-77
2022/08/23 05:01:33;;;;;;;8.05;7.25;;;16.40;99.90;;;;;;5004579;28;20068;-77
2022/08/23 05:04:03;;;;;;;8.68;7.07;;;16.40;99.90;;;;;;4990602;28;20119;-77
2022/08/23 05:06:30;;;;;;;9.45;7.25;;;16.40;99.90;;;;;;5008653;28;20154;-78
2022/08/23 05:08:56;;;;;;;9.63;7.72;;;16.50;99.90;;;;;;5025094;28;20049;-77
2022/08/23 05:11:21;;;;;;;9.45;8.40;;;16.50;99.90;;;;;;5007363;28;20145;-77
2022/08/23 05:13:48;;;;;;;9.85;8.02;;;16.50;99.90;;;;;;4987925;28;20128;-78
2022/08/23 05:16:14;;;;;;;10.63;7.45;;;16.60;99.90;;;;;;5001776;28;20046;-78
2022/08/23 05:18:40;;;;;;;11.32;7.78;;;16.60;99.90;;;;;;4988127;28;20058;-78
2022/08/23 05:21:06;;;;;;;9.70;7.30;;;16.60;99.90;;;;;;5002007;28;20246;-79
2022/08/23 05:23:32;;;;;;;9.98;8.38;;;16.60;99.90;;;;;;4985958;28;20498;-79
2022/08/23 05:25:58;;;;;;;8.43;7.60;;;16.70;99.90;;;;;;5002710;28;20140;-77
2022/08/23 05:28:31;;;;;;;8.27;7.47;;;16.70;99.90;;;;;;5003465;28;20054;-79
2022/08/23 05:31:00;;;;;;;8.95;7.43;;;16.70;99.90;;;;;;4998449;28;20042;-81
2022/08/23 05:33:27;;;;;;;10.27;7.10;;;16.80;99.90;;;;;;4988557;28;20108;-82
2022/08/23 05:35:54;;;;;;;9.15;6.93;;;16.80;99.90;;;;;;5002326;28;20053;-81
2022/08/23 05:38:20;;;;;;;10.65;8.18;;;16.80;99.90;;;;;;4989100;28;20053;-82
2022/08/23 05:40:51;;;;;;;8.80;7.90;;;16.90;99.90;;;;;;4986916;28;20046;-83
2022/08/23 05:43:18;;;;;;;10.52;9.23;;;16.30;99.90;;;;;;4970888;28;20042;-82
2022/08/23 05:45:45;;;;;;;12.60;9.65;;;17.00;99.90;;;;;;5003120;28;20049;-82
2022/08/23 05:48:11;;;;;;;12.88;9.77;;;17.00;99.90;;;;;;4987124;28;20081;-82
2022/08/23 05:50:38;;;;;;;9.35;8.05;;;17.10;99.90;;;;;;4987971;28;20482;-82
2022/08/23 05:53:05;;;;;;;11.27;8.75;;;17.10;99.90;;;;;;5000768;28;20046;-82
2022/08/23 05:55:31;;;;;;;8.82;7.90;;;17.20;99.90;;;;;;4986907;28;20046;-83
2022/08/23 05:57:57;;;;;;;13.48;9.07;;;17.20;99.90;;;;;;4985944;28;20483;-82
2022/08/23 06:00:23;;;;;;;12.95;8.18;;;17.30;99.90;;;;;;4986731;28;20057;-83
2022/08/23 06:02:49;;;;;;;8.73;7.82;;;17.40;99.90;;;;;;4999953;28;20048;-80
2022/08/23 06:05:16;;;;;;;10.40;8.77;;;17.50;99.90;;;;;;4950873;28;20045;-80
2022/08/23 06:07:42;;;;;;;13.55;10.52;;;17.60;99.90;;;;;;5003991;28;20081;-82
2022/08/23 06:10:08;;;;;;;11.45;9.43;;;17.60;99.90;;;;;;4981745;28;20620;-81
2022/08/23 06:12:34;;;;;;;12.23;10.30;;;17.70;99.90;;;;;;5004527;28;20503;-82
2022/08/23 06:15:01;;;;;;;14.02;10.93;;;17.80;99.90;;;;;;5004275;28;20081;-80
2022/08/23 06:17:27;;;;;;;15.25;10.65;;;17.80;99.90;;;;;;5006647;28;20121;-81
2022/08/23 06:19:54;;;;;;;13.05;11.05;;;17.80;99.90;;;;;;5009142;28;20041;-81
2022/08/23 06:22:20;;;;;;;13.65;10.80;;;17.90;99.90;;;;;;5009384;28;20069;-80
2022/08/23 06:24:46;;;;;;;10.55;8.20;;;17.90;99.90;;;;;;5009229;28;20041;-82
2022/08/23 06:27:12;;;;;;;13.35;10.77;;;18.00;99.90;;;;;;4993216;28;20560;-81
2022/08/23 06:29:38;;;;;;;14.25;11.05;;;18.00;99.90;;;;;;5008966;28;20507;-82
2022/08/23 06:32:05;;;;;;;11.27;9.95;;;18.10;99.90;;;;;;4991581;28;20057;-82
2022/08/23 06:34:36;;;;;;;12.32;10.82;;;18.20;99.90;;;;;;5002853;28;20121;-81
2022/08/23 06:37:13;;;;;;;12.20;10.90;;;18.30;99.90;;;;;;5002499;28;20108;-80
2022/08/23 06:39:39;;;;;;;12.88;10.65;;;18.40;99.90;;;;;;4986491;28;20045;-83
2022/08/23 06:42:11;;;;;;;12.68;10.38;;;18.50;99.90;;;;;;4986924;28;20088;-80
2022/08/23 06:44:37;;;;;;;13.48;11.05;;;18.60;99.90;;;;;;5003715;28;20135;-80
2022/08/23 06:47:04;;;;;;;13.80;11.18;;;19.40;99.90;;;;;;5003393;28;20104;-80
2022/08/23 06:49:30;;;;;;;15.02;11.35;;;18.80;99.90;;;;;;4987079;28;20049;-81
2022/08/23 06:51:58;;;;;;;13.10;11.13;;;18.80;99.90;;;;;;5003459;28;20042;-81
2022/08/23 06:54:27;;;;;;;13.10;11.85;;;18.90;99.90;;;;;;4988692;28;20053;-81
2022/08/23 06:56:55;;;;;;;13.63;11.23;;;19.10;99.90;;;;;;5002447;28;20069;-80
2022/08/23 06:59:21;;;;;;;12.27;10.88;;;19.20;99.90;;;;;;4985871;28;20053;-80
2022/08/23 07:02:00;;;;;;;13.95;11.15;;;19.30;99.90;;;;;;4986609;28;20492;-80
2022/08/23 07:04:28;;;;;;;13.35;10.85;;;19.30;99.90;;;;;;5007980;28;20156;-80
2022/08/23 07:06:56;;;;;;;12.75;10.68;;;19.50;99.90;;;;;;5015988;28;20038;-77
2022/08/23 07:09:22;;;;;;;12.75;10.98;;;19.50;99.90;;;;;;5005280;28;20089;-79
2022/08/23 07:11:48;;;;;;;13.60;10.10;;;19.70;99.90;;;;;;4984382;28;20069;-79
2022/08/23 07:14:16;;;;;;;14.98;9.98;;;19.90;99.90;;;;;;4971447;28;20049;-79
2022/08/23 07:16:51;;;;;;;15.00;9.82;;;20.00;99.90;;;;;;5002791;28;20117;-80
2022/08/23 07:19:19;;;;;;;12.82;10.55;;;20.10;99.90;;;;;;5030124;28;20045;-81
2022/08/23 07:21:45;;;;;;;12.57;10.75;;;20.30;99.90;;;;;;5012427;28;20104;-81
2022/08/23 07:24:12;;;;;;;12.77;9.77;;;20.40;99.90;;;;;;5003443;28;20096;-81
2022/08/23 07:26:39;;;;;;;9.82;8.43;;;20.60;99.90;;;;;;5002668;28;20049;-80
2022/08/23 07:29:06;;;;;;;11.13;8.85;;;20.80;99.90;;;;;;5000133;28;20111;-80
2022/08/23 07:31:37;;;;;;;9.57;8.48;;;21.00;99.90;;;;;;4956309;28;20050;-79
2022/08/23 07:34:04;;;;;;;11.80;8.90;;;21.10;99.90;;;;;;5001175;28;20046;-80
2022/08/23 07:36:32;;;;;;;10.15;9.05;;;21.30;99.90;;;;;;4980970;28;20097;-79
2022/08/23 07:38:58;;;;;;;9.70;7.63;;;21.50;99.90;;;;;;4986966;28;20050;-79
2022/08/23 07:41:30;;;;;;;11.18;8.00;;;21.80;99.90;;;;;;4986561;28;20061;-79
2022/08/23 07:43:57;;;;;;;9.15;7.55;;;22.10;99.90;;;;;;4971185;28;20161;-79
2022/08/23 07:46:24;;;;;;;9.55;7.60;;;22.40;99.90;;;;;;5003904;28;20053;-80
2022/08/23 07:48:51;;;;;;;8.73;7.43;;;22.50;99.90;;;;;;4998564;28;20046;-80
2022/08/23 07:51:18;;;;;;;8.38;7.03;;;22.70;99.90;;;;;;5000837;28;20069;-80
2022/08/23 07:53:47;;;;;;;12.00;7.28;;;22.80;99.90;;;;;;5001458;28;20038;-79
2022/08/23 07:56:15;;;;;;;10.38;7.13;;;22.80;99.90;;;;;;4984689;28;20049;-80
2022/08/23 07:58:41;;;;;;;8.73;7.00;;;22.80;99.90;;;;;;5002420;28;20066;-80
2022/08/23 08:01:10;;;;;;;8.73;6.70;;;23.00;99.90;;;;;;5000322;28;20096;-77
2022/08/23 08:03:37;;;;;;;8.55;7.22;;;22.90;99.90;;;;;;5000876;28;20144;-80
2022/08/23 08:06:11;;;;;;;7.93;7.13;;;22.90;99.90;;;;;;5001137;28;20037;-80
2022/08/23 08:08:39;;;;;;;9.57;6.70;;;22.90;99.90;;;;;;5000536;28;20403;-81
2022/08/23 08:11:06;;;;;;;7.22;6.35;;;23.10;99.90;;;;;;5003645;28;20054;-81
2022/08/23 08:13:33;;;;;;;8.68;6.75;;;23.20;99.90;;;;;;5007297;28;20068;-79
2022/08/23 08:16:00;;;;;;;7.50;6.20;;;23.40;99.90;;;;;;4991693;28;20104;-79
2022/08/23 08:18:25;;;;;;;10.05;6.75;;;23.50;99.90;;;;;;4974410;28;20133;-79
2022/08/23 08:20:51;;;;;;;7.38;5.97;;;23.70;99.90;;;;;;5007785;28;20141;-79
2022/08/23 08:23:17;;;;;;;9.43;6.95;;;23.50;99.90;;;;;;5011551;28;20125;-80
2022/08/23 08:25:42;;;;;;;8.60;6.43;;;23.60;99.90;;;;;;4963029;28;20057;-78
2022/08/23 08:28:08;;;;;;;8.43;7.15;;;23.60;99.90;;;;;;4995010;28;20050;-79
2022/08/23 08:30:34;;;;;;;12.05;7.22;;;23.60;99.90;;;;;;5010540;28;20540;-79
2022/08/23 08:33:00;;;;;;;7.82;6.55;;;23.60;99.90;;;;;;5011771;28;20446;-79
2022/08/23 08:35:25;;;;;;;7.63;6.50;;;23.60;99.90;;;;;;5010517;28;20377;-79
2022/08/23 08:37:51;;;;;;;9.73;6.18;;;23.60;99.90;;;;;;5011344;28;20081;-79
2022/08/23 08:40:26;;;;;;;7.78;6.05;;;23.50;99.90;;;;;;4994104;28;20124;-78
2022/08/23 08:43:22;;;;;;;8.07;6.10;;;23.70;99.90;;;;;;5009723;28;20530;-78
2022/08/23 08:45:59;;;;;;;8.63;5.93;;;24.00;99.90;;;;;;4994402;28;20061;-78
2022/08/23 08:48:28;;;;;;;10.90;6.63;;;24.50;99.90;;;;;;4993075;28;20566;-77
2022/08/23 08:50:58;;;;;;;8.32;6.10;;;24.90;99.90;;;;;;5009986;28;20053;-78
2022/08/23 08:53:29;;;;;;;9.65;6.30;;;25.10;99.90;;;;;;5026346;28;20085;-78
2022/08/23 08:56:02;;;;;;;8.32;6.13;;;25.30;99.90;;;;;;4993206;28;20058;-77
2022/08/23 08:59:05;;;;;;;8.40;5.60;;;25.50;99.90;;;;;;5009516;28;20487;-78
2022/08/23 09:01:34;;;;;;;8.10;5.78;;;25.80;99.90;;;;;;4992374;28;20399;-78
2022/08/23 09:04:00;;;;;;;9.05;5.30;;;26.00;99.90;;;;;;5009932;28;20056;-78
2022/08/23 09:06:57;;;;;;;9.85;5.20;;;26.20;99.90;;;;;;4993762;28;20092;-78
2022/08/23 09:09:22;;;;;;;8.25;4.57;;;26.40;99.90;;;;;;5009466;28;20065;-78
2022/08/23 09:12:08;;;;;;;7.35;5.13;;;26.60;99.90;;;;;;4993743;28;20073;-79
2022/08/23 09:14:56;;;;;;;9.25;4.25;;;26.80;99.90;;;;;;4994481;28;20376;-77
2022/08/23 09:17:50;;;;;;;9.18;5.03;;;26.90;99.90;;;;;;5008880;28;20125;-78
2022/08/23 09:20:21;;;;;;;8.40;5.55;;;27.00;99.90;;;;;;5008194;28;20499;-80
2022/08/23 09:22:50;;;;;;;9.18;4.82;;;27.20;99.90;;;;;;5005719;28;20557;-79
2022/08/23 09:25:17;;;;;;;8.48;5.45;;;27.40;99.90;;;;;;5006071;28;20348;-81
2022/08/23 09:27:43;;;;;;;8.27;5.20;;;27.50;99.90;;;;;;5005024;28;20861;-80
2022/08/23 09:30:12;;;;;;;8.80;4.50;;;27.50;99.90;;;;;;4985917;28;20069;-81
2022/08/23 09:32:42;;;;;;;7.10;5.20;;;27.50;99.90;;;;;;5003342;28;20130;-79
2022/08/23 09:35:17;;;;;;;8.05;5.50;;;27.60;99.90;;;;;;4988402;28;20045;-77
2022/08/23 09:38:23;;;;;;;9.10;5.50;;;27.60;99.90;;;;;;5021263;28;20052;-77
2022/08/23 09:40:49;;;;;;;7.88;5.18;;;27.70;99.90;;;;;;4913597;29;20057;-77
2022/08/23 09:43:25;;;;;;;8.60;5.45;;;27.70;99.90;;;;;;4913100;29;20046;-77
2022/08/23 09:45:53;;;;;;;7.15;5.18;;;27.80;99.90;;;;;;4967287;28;20191;-77
2022/08/23 09:48:37;;;;;;;7.80;5.05;;;27.90;99.90;;;;;;4985152;28;20050;-76
2022/08/23 09:51:32;;;;;;;9.15;5.45;;;28.00;99.90;;;;;;5002357;28;20057;-77
2022/08/23 09:54:12;;;;;;;8.98;5.60;;;28.10;99.90;;;;;;4986899;28;20050;-78
2022/08/23 09:56:43;;;;;;;8.77;6.35;;;28.10;99.90;;;;;;4999164;28;20572;-78
2022/08/23 09:59:41;;;;;;;8.32;5.47;;;28.00;99.90;;;;;;5032032;28;20057;-78
2022/08/23 10:02:22;;;;;;;8.27;6.13;;;27.90;99.90;;;;;;4967561;28;20144;-77
2022/08/23 10:05:02;;;;;;;7.05;5.80;;;27.90;99.90;;;;;;4983270;28;20050;-76
2022/08/23 10:07:33;;;;;;;8.52;5.50;;;28.10;99.90;;;;;;4985887;28;20057;-77
2022/08/23 10:10:16;;;;;;;7.35;5.90;;;28.20;99.90;;;;;;5010816;28;20052;-77
2022/08/23 10:12:41;;;;;;;10.02;6.15;;;28.20;99.90;;;;;;5019261;28;20061;-78
2022/08/23 10:15:08;;;;;;;7.65;5.10;;;28.20;99.90;;;;;;4986742;28;20052;-76
2022/08/23 10:17:40;;;;;;;9.05;5.80;;;28.30;99.90;;;;;;5000978;28;20603;-77
2022/08/23 10:20:31;;;;;;;8.63;5.53;;;28.20;99.90;;;;;;5001153;28;20052;-77
2022/08/23 10:23:15;;;;;;;8.73;5.70;;;28.30;99.90;;;;;;5014911;28;20518;-77
2022/08/23 10:25:47;;;;;;;8.77;5.03;;;28.40;99.90;;;;;;4999338;28;20050;-78
2022/08/23 10:31:15;;;;;;;8.25;5.63;;;28.80;99.90;;;;;;5014164;28;20077;-78
2022/08/23 10:33:49;;;;;;;9.75;5.82;;;28.80;99.90;;;;;;4997974;28;20061;-76
2022/08/23 10:36:18;;;;;;;6.07;4.88;;;28.70;99.90;;;;;;4998128;28;20136;-77
2022/08/23 10:38:55;;;;;;;8.32;6.25;;;28.60;99.90;;;;;;4982292;28;20054;-77
2022/08/23 10:41:47;;;;;;;7.07;5.20;;;28.40;99.90;;;;;;4998078;28;20597;-77
2022/08/23 10:44:31;;;;;;;7.93;5.80;;;28.30;99.90;;;;;;4982864;28;20069;-76
2022/08/23 10:47:16;;;;;;;7.25;5.57;;;28.30;99.90;;;;;;4983226;28;20045;-77
2022/08/23 10:49:42;;;;;;;9.10;5.65;;;28.30;99.90;;;;;;4979362;28;20487;-78
2022/08/23 10:52:14;;;;;;;8.65;5.60;;;28.20;99.90;;;;;;4999163;28;20522;-77
2022/08/23 10:54:58;;;;;;;8.65;5.82;;;28.10;99.90;;;;;;4998901;28;20123;-77
2022/08/23 10:57:35;;;;;;;10.35;7.20;;;28.20;99.90;;;;;;4998854;28;20115;-77
2022/08/23 11:00:07;;;;;;;9.32;6.35;;;28.10;99.90;;;;;;4999947;28;20526;-77
2022/08/23 11:02:50;;;;;;;8.77;5.22;;;28.10;99.90;;;;;;4989542;28;20499;-77
2022/08/23 11:05:28;;;;;;;7.68;5.78;;;28.20;99.90;;;;;;4981532;28;20049;-78
2022/08/23 11:08:06;;;;;;;10.77;6.93;;;28.20;99.90;;;;;;4999638;28;20046;-78
2022/08/23 11:10:38;;;;;;;7.85;5.97;;;28.40;99.90;;;;;;4997642;28;20061;-78
2022/08/23 11:13:10;;;;;;;8.02;5.63;;;28.50;99.90;;;;;;4998213;28;20588;-78
2022/08/23 11:15:47;;;;;;;10.52;6.55;;;28.70;99.90;;;;;;4997642;28;20053;-77
2022/08/23 11:18:37;;;;;;;11.88;5.63;;;28.80;99.90;;;;;;4981531;28;20049;-78
2022/08/23 11:21:18;;;;;;;8.05;6.68;;;29.00;99.90;;;;;;4996928;28;20081;-77
2022/08/23 11:23:57;;;;;;;8.95;6.28;;;29.00;99.90;;;;;;4982117;28;20125;-78
2022/08/23 11:26:26;;;;;;;8.93;6.57;;;28.90;99.90;;;;;;4984193;28;20065;-79
2022/08/23 11:28:59;;;;;;;9.25;6.65;;;29.00;99.90;;;;;;4998766;28;20050;-79
2022/08/23 11:31:30;;;;;;;7.97;6.40;;;29.10;99.90;;;;;;4997715;28;20080;-81
2022/08/23 11:34:17;;;;;;;8.93;5.55;;;29.10;99.80;;;;;;4997266;28;20045;-79
2022/08/23 11:37:17;;;;;;;7.78;5.90;;;29.10;99.50;;;;;;4981929;28;20152;-78
2022/08/23 11:39:58;;;;;;;7.72;6.25;;;29.40;99.10;;;;;;4978920;28;20081;-78
2022/08/23 11:42:36;;;;;;;6.93;5.68;;;29.80;98.70;;;;;;4977465;28;20086;-77
2022/08/23 11:45:19;;;;;;;10.55;5.47;;;30.00;98.60;;;;;;4998835;28;20046;-76
2022/08/23 11:48:15;;;;;;;8.20;4.00;;;30.00;98.00;;;;;;4998066;28;20051;-76
2022/08/23 11:50:50;;;;;;;7.78;4.97;;;30.30;97.30;;;;;;4999041;28;20056;-76
2022/08/23 11:53:45;;;;;;;8.85;5.32;;;30.80;96.80;;;;;;4985207;28;20054;-76
2022/08/23 11:56:11;;;;;;;8.98;5.68;;;30.90;96.40;;;;;;4991080;28;20041;-77
2022/08/23 11:59:14;;;;;;;9.82;5.45;;;30.80;96.50;;;;;;4992626;28;20456;-75
2022/08/23 12:01:40;;;;;;;8.38;5.97;;;30.60;96.00;;;;;;5009304;28;20344;-76
2022/08/23 12:04:36;;;;;;;7.95;6.35;;;30.40;96.80;;;;;;5009469;28;20402;-75
2022/08/23 12:07:10;;;;;;;8.60;5.82;;;30.10;97.00;;;;;;5003405;28;20054;-75
2022/08/23 12:09:39;;;;;;;9.23;6.47;;;30.20;97.70;;;;;;5009224;28;20125;-75
2022/08/23 12:12:13;;;;;;;7.68;5.20;;;30.40;97.30;;;;;;4991613;28;20081;-74
2022/08/23 12:14:41;;;;;;;6.55;5.15;;;30.40;97.40;;;;;;5008102;28;20054;-76
2022/08/23 12:17:24;;;;;;;9.95;5.03;;;30.80;97.30;;;;;;5025592;28;20072;-76
2022/08/23 12:20:02;;;;;;;6.93;5.20;;;31.10;96.70;;;;;;5008290;28;20042;-76
2022/08/23 12:22:33;;;;;;;8.82;5.35;;;31.10;96.40;;;;;;5007826;28;20133;-76
2022/08/23 12:25:06;;;;;;;8.27;5.38;;;31.30;96.30;;;;;;5009248;28;20111;-76
2022/08/23 12:27:38;;;;;;;9.68;5.40;;;31.60;95.70;;;;;;5008772;28;20041;-76
2022/08/23 12:30:04;;;;;;;7.47;5.40;;;31.50;95.30;;;;;;5008299;28;20053;-76
2022/08/23 12:32:45;;;;;;;8.80;4.75;;;31.50;95.30;;;;;;5006824;28;20045;-76
2022/08/23 12:35:38;;;;;;;7.57;4.68;;;31.30;95.00;;;;;;5009013;28;20085;-76
2022/08/23 12:38:12;;;;;;;6.70;3.85;;;31.30;94.20;;;;;;5011136;28;20045;-76
2022/08/23 12:40:42;;;;;;;8.53;4.00;;;31.30;94.70;;;;;;5007712;28;20050;-75
2022/08/23 12:43:21;;;;;;;4.85;1.92;;;31.40;94.60;;;;;;4987215;28;20050;-76
2022/08/23 12:45:55;;;;;;;5.00;3.20;;;31.30;93.30;;;;;;5011075;28;20313;-75
2022/08/23 12:48:26;;;;;;;6.13;3.58;;;31.10;93.10;;;;;;5010046;28;20120;-75
2022/08/23 12:51:21;;;;;;;8.45;3.45;;;31.10;93.80;;;;;;5017799;28;20046;-75
2022/08/23 12:53:47;;;;;;;7.57;4.72;;;31.10;93.10;;;;;;4997913;28;20050;-75
2022/08/23 12:56:28;;;;;;;8.05;3.90;;;31.20;94.00;;;;;;4976257;28;20057;-77
2022/08/23 12:58:57;;;;;;;5.40;3.63;;;31.40;93.70;;;;;;5007300;28;20056;-77
2022/08/23 13:01:30;;;;;;;8.65;5.70;;;31.40;94.00;;;;;;5007848;28;20042;-76
2022/08/23 13:04:02;;;;;;;6.95;4.63;;;31.70;93.80;;;;;;5014242;28;20042;-76
2022/08/23 13:06:38;;;;;;;10.07;4.28;;;31.90;93.60;;;;;;5021982;28;20058;-77
2022/08/23 13:09:12;;;;;;;7.43;3.53;;;32.10;93.70;;;;;;5012596;28;20054;-76
2022/08/23 13:11:38;;;;;;;7.72;4.10;;;32.40;93.50;;;;;;5008062;28;20061;-75
2022/08/23 13:14:31;;;;;;;6.05;3.63;;;32.80;93.10;;;;;;5006083;28;20072;-78